Planet Ace — 3EYF9 — position and weather

sailwx.info

Track history (hours):
 
Tides and Currents Weather Stations Pressure Air Temp Water Temp Dewpoint Dewpoint Depression Visibility Wind Speed Wind Dir Waves Ship Positions

Planet Ace

Last reported at 2015-May-24 08:33 UTC. Time now 2015-May-25 05:24 UTC.
Position N 40°17' W 009°51'.

Length 188 m; beam 28.2 m.

Type: Cargo ship. MMSI: 352168000.

Date/timePositionNaut miles runAvg speedWind from/ knotsBaromVisibWave heightAir tempDewpointWater temp
2015-May-24 08:33N 40°17' W 009°51'1515.1
2015-May-24 07:33N 40°02' W 009°51'1515.2
2015-May-24 06:33N 39°47' W 009°51'1515.1
2015-May-24 05:34N 39°32' W 009°51'1515.3
2015-May-24 04:33N 39°17' W 009°51'1615.4
2015-May-24 03:33N 39°01' W 009°51'1615.8
2015-May-24 02:33N 38°46' W 009°51'1615.5
2015-May-24 01:34N 38°30' W 009°49'1515.4
2015-May-24 00:33N 38°15' W 009°44'1515.4
2015-May-23 23:33N 38°00' W 009°39'1515.2
2015-May-23 22:33N 37°45' W 009°35'1515.1
2015-May-23 21:33N 37°31' W 009°31'1515.3
2015-May-23 20:33N 37°16' W 009°26'1515.1
2015-May-23 19:33N 37°01' W 009°22'1615.7
2015-May-23 18:33N 36°48' W 009°12'1616.5
2015-May-23 17:33N 36°40' W 008°54'1716.8
2015-May-23 16:34N 36°34' W 008°34'1717.0
2015-May-23 15:34N 36°29' W 008°14'1717.1
2015-May-23 14:34N 36°23' W 007°54'1717.0
2015-May-23 13:34N 36°17' W 007°34'9716.1
2015-May-23 07:33N 35°58' W 005°36'6 0.2
2015-May-22 00:10N 35°56' W 005°30'610.3
2015-May-21 23:33N 36°00' W 005°24'10314.3
2015-May-21 16:21N 36°16' W 003°18'1215.3
2015-May-21 15:33N 36°19' W 003°02'1515.4
2015-May-21 14:33N 36°21' W 002°44'1615.7
2015-May-21 13:34N 36°24' W 002°25'1515.3
2015-May-21 12:33N 36°29' W 002°07'2015.5
2015-May-21 11:15N 36°42' W 001°48'1315.6
2015-May-21 10:25N 36°50' W 001°35'3015.4
2015-May-21 08:27N 37°10' W 001°06'1415.2
2015-May-21 07:33N 37°19' W 000°53'1515.5
2015-May-21 06:33N 37°30' W 000°39'1616.4
2015-May-21 05:33N 37°43' W 000°27'1615.6
2015-May-21 04:33N 37°55' W 000°16'  
2015-May-18 19:26N 38°58' E 007°42'2115.8
2015-May-18 18:08N 38°48' E 008°06'2415.1
2015-May-18 16:31N 38°36' E 008°33'2114.4
2015-May-18 15:05N 38°27' E 008°56'713.8
2015-May-18 14:33N 38°23' E 009°05'1414.2
2015-May-18 13:33N 38°16' E 009°21'23515.3
2015-May-17 22:11N 36°34' E 013°47'914.6
2015-May-17 21:33N 36°31' E 013°58'1514.7
2015-May-17 20:34N 36°27' E 014°16'1514.7
2015-May-17 19:33N 36°23' E 014°33'1614.4
2015-May-17 18:26N 36°19' E 014°53'41015.1
2015-May-16 15:21N 36°15' E 023°21'1215.4
2015-May-16 14:34N 36°24' E 023°32'1515.0
2015-May-16 13:33N 36°35' E 023°44'1615.2
2015-May-16 12:31N 36°47' E 023°56'1515.1
2015-May-16 11:33N 37°01' E 024°03'6215.2
2015-May-16 07:29N 37°57' E 024°36'3315.2
2015-May-16 05:20N 38°26' E 024°54'8514.6
2015-May-15 23:32N 39°43' E 025°40'1414.4
2015-May-15 22:32N 39°56' E 025°50'2013.8
2015-May-15 21:07N 40°02' E 026°14'  
Track history (hours):
 
Tides and Currents Weather Stations Pressure Air Temp Water Temp Dewpoint Dewpoint Depression Visibility Wind Speed Wind Dir Waves Ship Positions

Planet Ace

Last reported at 2015-May-24 08:33 UTC. Time now 2015-May-25 05:24 UTC.
Position N 40°17' W 009°51'.

Length 188 m; beam 28.2 m.

Type: Cargo ship. MMSI: 352168000.

Date/timePositionNaut miles runAvg speedWind from/ knotsBaromVisibWave heightAir tempDewpointWater temp
2015-May-24 08:33N 40°17' W 009°51'1515.1
2015-May-24 07:33N 40°02' W 009°51'1515.2
2015-May-24 06:33N 39°47' W 009°51'1515.1
2015-May-24 05:34N 39°32' W 009°51'1515.3
2015-May-24 04:33N 39°17' W 009°51'1615.4
2015-May-24 03:33N 39°01' W 009°51'1615.8
2015-May-24 02:33N 38°46' W 009°51'1615.5
2015-May-24 01:34N 38°30' W 009°49'1515.4
2015-May-24 00:33N 38°15' W 009°44'1515.4
2015-May-23 23:33N 38°00' W 009°39'1515.2
2015-May-23 22:33N 37°45' W 009°35'1515.1
2015-May-23 21:33N 37°31' W 009°31'1515.3
2015-May-23 20:33N 37°16' W 009°26'1515.1
2015-May-23 19:33N 37°01' W 009°22'1615.7
2015-May-23 18:33N 36°48' W 009°12'1616.5
2015-May-23 17:33N 36°40' W 008°54'1716.8
2015-May-23 16:34N 36°34' W 008°34'1717.0
2015-May-23 15:34N 36°29' W 008°14'1717.1
2015-May-23 14:34N 36°23' W 007°54'1717.0
2015-May-23 13:34N 36°17' W 007°34'9716.1
2015-May-23 07:33N 35°58' W 005°36'6 0.2
2015-May-22 00:10N 35°56' W 005°30'610.3
2015-May-21 23:33N 36°00' W 005°24'10314.3
2015-May-21 16:21N 36°16' W 003°18'1215.3
2015-May-21 15:33N 36°19' W 003°02'1515.4
2015-May-21 14:33N 36°21' W 002°44'1615.7
2015-May-21 13:34N 36°24' W 002°25'1515.3
2015-May-21 12:33N 36°29' W 002°07'2015.5
2015-May-21 11:15N 36°42' W 001°48'1315.6
2015-May-21 10:25N 36°50' W 001°35'3015.4
2015-May-21 08:27N 37°10' W 001°06'1415.2
2015-May-21 07:33N 37°19' W 000°53'1515.5
2015-May-21 06:33N 37°30' W 000°39'1616.4
2015-May-21 05:33N 37°43' W 000°27'1615.6
2015-May-21 04:33N 37°55' W 000°16'  
2015-May-18 19:26N 38°58' E 007°42'2115.8
2015-May-18 18:08N 38°48' E 008°06'2415.1
2015-May-18 16:31N 38°36' E 008°33'2114.4
2015-May-18 15:05N 38°27' E 008°56'713.8
2015-May-18 14:33N 38°23' E 009°05'1414.2
2015-May-18 13:33N 38°16' E 009°21'23515.3
2015-May-17 22:11N 36°34' E 013°47'914.6
2015-May-17 21:33N 36°31' E 013°58'1514.7
2015-May-17 20:34N 36°27' E 014°16'1514.7
2015-May-17 19:33N 36°23' E 014°33'1614.4
2015-May-17 18:26N 36°19' E 014°53'41015.1
2015-May-16 15:21N 36°15' E 023°21'1215.4
2015-May-16 14:34N 36°24' E 023°32'1515.0
2015-May-16 13:33N 36°35' E 023°44'1615.2
2015-May-16 12:31N 36°47' E 023°56'1515.1
2015-May-16 11:33N 37°01' E 024°03'6215.2
2015-May-16 07:29N 37°57' E 024°36'3315.2
2015-May-16 05:20N 38°26' E 024°54'8514.6
2015-May-15 23:32N 39°43' E 025°40'1414.4
2015-May-15 22:32N 39°56' E 025°50'2013.8
2015-May-15 21:07N 40°02' E 026°14'  

Dump ship's entire track history